createdAt,value
2022-10-06T00:01:47.860Z,3.05
2022-10-06T00:04:15.039Z,3.45
2022-10-06T00:06:42.438Z,3.00
2022-10-06T00:09:09.573Z,3.22
2022-10-06T00:11:37.632Z,3.10
2022-10-06T00:14:04.972Z,3.33
2022-10-06T00:16:32.256Z,3.08
2022-10-06T00:18:59.413Z,3.47
2022-10-06T00:21:26.600Z,3.33
2022-10-06T00:23:53.774Z,3.20
2022-10-06T00:26:20.984Z,3.40
2022-10-06T00:28:48.855Z,3.40
2022-10-06T00:31:16.514Z,3.45
2022-10-06T00:33:43.912Z,3.25
2022-10-06T00:36:11.130Z,3.67
2022-10-06T00:38:38.389Z,3.17
2022-10-06T00:41:05.746Z,3.03
2022-10-06T00:43:47.189Z,2.67
2022-10-06T00:46:31.919Z,2.85
2022-10-06T00:49:04.010Z,2.95
2022-10-06T00:51:31.564Z,3.20
2022-10-06T00:53:58.846Z,2.80
2022-10-06T00:56:26.731Z,2.60
2022-10-06T00:58:54.064Z,2.85
2022-10-06T01:01:21.303Z,3.00
2022-10-06T01:03:55.668Z,2.78
2022-10-06T01:06:22.870Z,3.00
2022-10-06T01:08:50.355Z,2.60
2022-10-06T01:11:17.555Z,2.83
2022-10-06T01:13:45.429Z,2.95
2022-10-06T01:16:24.455Z,2.55
2022-10-06T01:18:52.765Z,2.90
2022-10-06T01:21:36.003Z,2.50
2022-10-06T01:24:03.806Z,2.90
2022-10-06T01:26:34.732Z,3.05
2022-10-06T01:29:02.087Z,2.40
2022-10-06T01:31:29.695Z,3.17
2022-10-06T01:33:56.944Z,2.60
2022-10-06T01:36:24.124Z,2.42
2022-10-06T01:38:51.342Z,2.80
2022-10-06T01:41:19.495Z,2.58
2022-10-06T01:43:46.655Z,2.78
2022-10-06T01:46:13.923Z,2.85
2022-10-06T01:48:41.134Z,2.80
2022-10-06T01:51:12.378Z,2.88
2022-10-06T01:53:39.540Z,2.60
2022-10-06T01:56:06.803Z,2.60
2022-10-06T01:58:34.384Z,2.97
2022-10-06T02:01:07.123Z,2.92
2022-10-06T02:03:35.781Z,2.75
2022-10-06T02:06:03.821Z,3.03
2022-10-06T02:08:31.559Z,2.80
2022-10-06T02:10:59.067Z,3.15
2022-10-06T02:13:27.975Z,3.25
2022-10-06T02:15:58.470Z,2.88
2022-10-06T02:18:26.582Z,2.80
2022-10-06T02:20:54.016Z,3.15
2022-10-06T02:23:21.267Z,2.92
2022-10-06T02:25:48.480Z,3.20
2022-10-06T02:28:16.856Z,2.45
2022-10-06T02:30:44.334Z,2.88
2022-10-06T02:33:11.684Z,3.08
2022-10-06T02:35:38.976Z,3.00
2022-10-06T02:38:06.140Z,2.88
2022-10-06T02:40:33.462Z,3.20
2022-10-06T02:43:00.621Z,3.08
2022-10-06T02:45:27.939Z,3.17
2022-10-06T02:47:55.627Z,3.40
2022-10-06T02:50:23.403Z,3.83
2022-10-06T02:52:50.567Z,3.55
2022-10-06T02:55:17.795Z,3.10
2022-10-06T02:57:44.977Z,3.20
2022-10-06T03:00:12.720Z,3.40
2022-10-06T03:02:39.961Z,3.10
2022-10-06T03:05:07.426Z,3.15
2022-10-06T03:07:34.614Z,2.88
2022-10-06T03:10:01.811Z,2.60
2022-10-06T03:12:29.427Z,2.90
2022-10-06T03:14:56.598Z,3.40
2022-10-06T03:17:23.771Z,2.50
2022-10-06T03:19:50.920Z,2.72
2022-10-06T03:22:18.113Z,2.28
2022-10-06T03:24:45.269Z,2.65
2022-10-06T03:27:12.426Z,2.25
2022-10-06T03:29:39.578Z,2.78
2022-10-06T03:32:06.817Z,2.53
2022-10-06T03:34:34.165Z,2.65
2022-10-06T03:37:01.553Z,2.80
2022-10-06T03:39:28.768Z,2.90
2022-10-06T03:41:55.961Z,2.72
2022-10-06T03:44:23.265Z,2.00
2022-10-06T03:46:51.224Z,2.30
2022-10-06T03:49:18.458Z,2.63
2022-10-06T03:51:45.684Z,2.15
2022-10-06T03:54:12.858Z,1.80
2022-10-06T03:56:41.392Z,2.03
2022-10-06T03:59:10.823Z,1.98
2022-10-06T04:01:40.626Z,1.85
2022-10-06T04:04:08.307Z,1.50
2022-10-06T04:06:37.514Z,1.17
2022-10-06T04:11:34.819Z,1.30
2022-10-06T04:14:11.292Z,1.40
2022-10-06T04:16:40.682Z,1.10
2022-10-06T04:19:12.513Z,1.20
2022-10-06T04:21:41.505Z,1.30
2022-10-06T04:24:09.388Z,1.10
2022-10-06T04:26:39.059Z,0.90
2022-10-06T04:29:06.440Z,0.85
2022-10-06T04:31:36.971Z,0.80
2022-10-06T04:34:05.439Z,0.90
2022-10-06T04:36:34.854Z,0.77
2022-10-06T04:39:04.128Z,0.80
2022-10-06T04:44:03.432Z,0.95
2022-10-06T04:46:47.656Z,0.55
2022-10-06T04:49:19.974Z,0.50
2022-10-06T04:51:49.522Z,0.70
2022-10-06T04:56:44.250Z,0.70
2022-10-06T04:59:11.437Z,0.68
2022-10-06T05:01:38.661Z,0.55
2022-10-06T05:04:06.438Z,0.45
2022-10-06T05:06:38.970Z,0.50
2022-10-06T05:09:11.330Z,0.50
2022-10-06T05:11:38.557Z,0.73
2022-10-06T05:14:06.074Z,0.60
2022-10-06T05:16:33.690Z,0.60
2022-10-06T05:19:00.967Z,0.70
2022-10-06T05:21:32.257Z,0.50
2022-10-06T05:23:59.656Z,0.77
2022-10-06T05:26:29.025Z,0.47
2022-10-06T05:28:56.246Z,0.30
2022-10-06T05:31:35.176Z,0.40
2022-10-06T05:34:02.434Z,0.52
2022-10-06T05:36:32.659Z,0.60
2022-10-06T05:39:05.721Z,0.50
2022-10-06T05:41:34.250Z,0.50
2022-10-06T05:44:01.511Z,0.50
2022-10-06T05:46:33.066Z,0.63
2022-10-06T05:49:10.536Z,0.57
2022-10-06T05:51:41.339Z,0.47
2022-10-06T05:54:08.879Z,0.50
2022-10-06T05:56:37.855Z,0.65
2022-10-06T05:59:05.725Z,0.30
2022-10-06T06:01:35.298Z,0.52
2022-10-06T06:04:04.248Z,0.50
2022-10-06T06:06:36.419Z,0.52
2022-10-06T06:09:11.649Z,0.70
2022-10-06T06:11:41.852Z,0.68
2022-10-06T06:14:11.460Z,0.60
2022-10-06T06:16:40.686Z,1.05
2022-10-06T06:19:09.319Z,0.80
2022-10-06T06:21:36.960Z,1.05
2022-10-06T06:24:05.451Z,0.60
2022-10-06T06:26:36.274Z,0.70
2022-10-06T06:29:03.960Z,0.60
2022-10-06T06:31:33.602Z,0.70
2022-10-06T06:34:02.832Z,0.50
2022-10-06T06:39:09.549Z,1.15
2022-10-06T06:41:39.331Z,0.73
2022-10-06T06:44:08.296Z,0.80
2022-10-06T06:49:08.327Z,0.55
2022-10-06T06:51:37.254Z,0.57
2022-10-06T06:54:05.229Z,0.70
2022-10-06T06:56:36.576Z,1.05
2022-10-06T06:59:08.920Z,0.88
2022-10-06T07:01:38.162Z,0.82
2022-10-06T07:06:36.419Z,1.00
2022-10-06T07:09:03.731Z,0.90
2022-10-06T07:11:33.174Z,0.80
2022-10-06T07:14:06.358Z,0.93
2022-10-06T07:16:52.845Z,1.10
2022-10-06T07:19:40.217Z,1.17
2022-10-06T07:22:29.018Z,0.90
2022-10-06T07:25:08.380Z,1.13
2022-10-06T07:27:36.682Z,1.02
2022-10-06T07:30:07.559Z,1.30
2022-10-06T07:32:34.866Z,0.65
2022-10-06T07:35:04.168Z,0.93
2022-10-06T07:37:31.393Z,0.90
2022-10-06T07:39:58.638Z,0.90
2022-10-06T07:42:25.895Z,0.90
2022-10-06T07:45:12.002Z,1.00
2022-10-06T07:47:39.216Z,1.30
2022-10-06T07:50:07.448Z,1.00
2022-10-06T07:52:39.216Z,0.90
2022-10-06T07:55:09.772Z,0.93
2022-10-06T07:57:37.088Z,1.10
2022-10-06T08:00:09.348Z,1.00
2022-10-06T08:02:36.601Z,1.67
2022-10-06T08:05:04.665Z,1.30
2022-10-06T08:07:31.966Z,1.23
2022-10-06T08:09:59.353Z,1.00
2022-10-06T08:12:37.758Z,1.38
2022-10-06T08:15:11.440Z,1.33
2022-10-06T08:17:38.643Z,1.30
2022-10-06T08:20:08.389Z,1.25
2022-10-06T08:22:36.341Z,1.15
2022-10-06T08:25:08.506Z,1.15
2022-10-06T08:27:37.618Z,1.33
2022-10-06T08:30:07.342Z,1.23
2022-10-06T08:32:34.775Z,1.20
2022-10-06T08:35:02.316Z,1.00
2022-10-06T08:37:29.720Z,1.38
2022-10-06T08:39:57.690Z,1.65
2022-10-06T08:42:48.581Z,1.10
2022-10-06T08:45:26.108Z,1.17
2022-10-06T08:47:54.293Z,0.80
2022-10-06T08:50:22.547Z,1.25
2022-10-06T08:53:16.321Z,1.37
2022-10-06T08:55:50.375Z,1.42
2022-10-06T08:58:30.202Z,0.80
2022-10-06T09:01:21.127Z,1.65
2022-10-06T09:03:51.503Z,1.63
2022-10-06T09:06:50.811Z,1.25
2022-10-06T09:09:45.966Z,2.05
2022-10-06T09:13:10.888Z,1.80
2022-10-06T09:16:00.580Z,1.52
2022-10-06T09:19:07.176Z,1.05
2022-10-06T09:21:45.728Z,1.40
2022-10-06T09:24:29.145Z,1.10
2022-10-06T09:27:00.655Z,1.10
2022-10-06T09:29:31.283Z,1.30
2022-10-06T09:31:59.280Z,1.60
2022-10-06T09:34:45.700Z,1.25
2022-10-06T09:37:13.785Z,1.75
2022-10-06T09:39:51.674Z,1.50
2022-10-06T09:42:29.603Z,1.38
2022-10-06T09:44:58.527Z,1.75
2022-10-06T09:47:46.046Z,1.10
2022-10-06T09:50:21.634Z,1.95
2022-10-06T09:53:05.296Z,2.00
2022-10-06T09:55:38.703Z,1.33
2022-10-06T09:58:17.611Z,1.35
2022-10-06T10:00:56.889Z,1.23
2022-10-06T10:03:31.351Z,1.60
2022-10-06T10:05:59.848Z,1.83
2022-10-06T10:08:31.063Z,1.52
2022-10-06T10:11:47.281Z,1.70
2022-10-06T10:14:20.282Z,1.75
2022-10-06T10:16:52.314Z,1.55
2022-10-06T10:19:32.972Z,1.33
2022-10-06T10:22:00.309Z,1.50
2022-10-06T10:24:41.552Z,1.27
2022-10-06T10:27:20.775Z,1.35
2022-10-06T10:30:04.965Z,1.45
2022-10-06T10:32:57.597Z,1.90
2022-10-06T10:35:51.413Z,1.38
2022-10-06T10:38:23.447Z,1.40
2022-10-06T10:41:13.578Z,2.10
2022-10-06T10:44:07.407Z,2.00
2022-10-06T10:46:46.032Z,1.42
2022-10-06T10:49:17.489Z,1.40
2022-10-06T10:52:00.364Z,1.00
2022-10-06T10:55:04.753Z,1.10
2022-10-06T10:57:37.561Z,1.33
2022-10-06T11:00:08.765Z,1.70
2022-10-06T11:02:38.278Z,1.50
2022-10-06T11:05:29.064Z,1.10
2022-10-06T11:08:07.676Z,1.10
2022-10-06T11:10:41.283Z,1.30
2022-10-06T11:13:29.198Z,1.20
2022-10-06T11:16:18.247Z,1.85
2022-10-06T11:19:09.087Z,1.30
2022-10-06T11:22:04.810Z,1.83
2022-10-06T11:24:41.136Z,1.38
2022-10-06T11:27:30.309Z,1.73
2022-10-06T11:30:07.176Z,1.70
2022-10-06T11:32:49.416Z,1.55
2022-10-06T11:35:26.947Z,2.00
2022-10-06T11:38:00.788Z,1.45
2022-10-06T11:40:56.357Z,2.10
2022-10-06T11:43:48.601Z,1.45
2022-10-06T11:50:55.924Z,1.67
2022-10-06T11:53:38.905Z,1.65
2022-10-06T11:56:18.176Z,1.67
2022-10-06T11:58:51.781Z,2.00
2022-10-06T12:01:31.363Z,1.40
2022-10-06T12:04:10.489Z,1.55
2022-10-06T12:06:43.616Z,1.50
2022-10-06T12:09:36.000Z,1.13
2022-10-06T12:12:15.638Z,1.00
2022-10-06T12:18:09.469Z,1.45
2022-10-06T12:20:55.201Z,1.60
2022-10-06T12:23:54.593Z,1.20
2022-10-06T12:27:04.512Z,0.98
2022-10-06T12:29:49.439Z,1.10
2022-10-06T12:32:54.044Z,1.00
2022-10-06T12:35:39.979Z,1.27
2022-10-06T12:38:33.964Z,1.20
2022-10-06T12:41:02.484Z,1.20
2022-10-06T12:43:37.908Z,1.30
2022-10-06T12:46:12.090Z,1.40
2022-10-06T12:48:45.356Z,1.08
2022-10-06T12:51:25.242Z,0.93
2022-10-06T12:54:10.479Z,1.17
2022-10-06T12:56:40.138Z,1.10
2022-10-06T12:59:35.290Z,1.30
2022-10-06T13:02:10.166Z,1.33
2022-10-06T13:04:43.022Z,2.20
2022-10-06T13:07:28.029Z,1.20
2022-10-06T13:10:31.079Z,1.48
2022-10-06T13:12:58.714Z,1.33
2022-10-06T13:15:35.017Z,1.35
2022-10-06T13:18:04.282Z,1.00
2022-10-06T13:20:39.655Z,1.23
2022-10-06T13:23:23.402Z,1.35
2022-10-06T13:26:30.307Z,1.58
2022-10-06T13:28:59.240Z,1.10
2022-10-06T13:31:31.451Z,1.20
2022-10-06T13:34:13.206Z,1.10
2022-10-06T13:36:42.701Z,1.65
2022-10-06T13:39:15.968Z,1.70
2022-10-06T13:41:56.338Z,1.30
2022-10-06T13:44:35.744Z,1.40
2022-10-06T13:47:16.317Z,1.08
2022-10-06T13:49:51.784Z,1.45
2022-10-06T13:52:40.350Z,1.45
2022-10-06T13:55:23.114Z,1.10
2022-10-06T13:58:04.826Z,1.10
2022-10-06T14:00:48.987Z,1.33
2022-10-06T14:06:22.397Z,0.90
2022-10-06T14:08:52.553Z,1.13
2022-10-06T14:11:26.528Z,1.27
2022-10-06T14:13:59.739Z,1.27
2022-10-06T14:16:28.526Z,1.13
2022-10-06T14:19:04.025Z,1.30
2022-10-06T14:21:42.503Z,1.17
2022-10-06T14:24:15.800Z,1.35
2022-10-06T14:26:45.219Z,1.10
2022-10-06T14:29:14.331Z,1.30
2022-10-06T14:31:41.884Z,1.20
2022-10-06T14:34:17.151Z,1.38
2022-10-06T14:36:53.583Z,1.60
2022-10-06T14:39:20.966Z,1.15
2022-10-06T14:41:48.332Z,1.33
2022-10-06T14:44:16.299Z,1.00
2022-10-06T14:46:48.123Z,1.33
2022-10-06T14:49:16.064Z,1.33
2022-10-06T14:51:45.301Z,1.73
2022-10-06T14:56:42.789Z,1.30
2022-10-06T14:59:14.530Z,1.10
2022-10-06T15:01:42.461Z,1.63
2022-10-06T15:04:13.102Z,1.10
2022-10-06T15:06:59.677Z,1.00
2022-10-06T15:09:30.574Z,1.40
2022-10-06T15:11:58.742Z,1.50
2022-10-06T15:14:28.286Z,1.45
2022-10-06T15:16:56.086Z,1.63
2022-10-06T15:19:23.276Z,1.73
2022-10-06T15:21:51.092Z,1.33
2022-10-06T15:24:19.414Z,1.60
2022-10-06T15:27:06.271Z,1.80
2022-10-06T15:29:35.082Z,1.40
2022-10-06T15:32:03.668Z,1.45
2022-10-06T15:34:33.435Z,1.35
2022-10-06T15:37:01.226Z,1.80
2022-10-06T15:39:30.939Z,1.40
2022-10-06T15:41:58.656Z,1.45
2022-10-06T15:44:25.993Z,1.60
2022-10-06T15:46:55.067Z,1.73
2022-10-06T15:52:11.063Z,1.75
2022-10-06T15:54:45.900Z,1.27
2022-10-06T15:57:20.285Z,1.48
2022-10-06T15:59:48.492Z,1.48
2022-10-06T16:02:17.990Z,1.48
2022-10-06T16:05:09.250Z,1.70
2022-10-06T16:07:36.500Z,1.20
2022-10-06T16:10:03.784Z,1.65
2022-10-06T16:12:32.675Z,2.38
2022-10-06T16:14:59.986Z,1.80
2022-10-06T16:17:27.212Z,1.30
2022-10-06T16:19:54.552Z,1.25
2022-10-06T16:22:22.119Z,1.48
2022-10-06T16:24:50.415Z,1.20
2022-10-06T16:27:17.714Z,1.70
2022-10-06T16:29:45.418Z,1.48
2022-10-06T16:32:15.082Z,1.80
2022-10-06T16:34:42.723Z,2.50
2022-10-06T16:37:10.046Z,2.42
2022-10-06T16:39:37.448Z,2.30
2022-10-06T16:42:07.992Z,2.08
2022-10-06T16:44:37.418Z,2.38
2022-10-06T16:47:04.829Z,2.30
2022-10-06T16:49:32.257Z,2.38
2022-10-06T16:51:59.587Z,2.15
2022-10-06T16:54:26.875Z,2.42
2022-10-06T16:56:55.673Z,2.60
2022-10-06T16:59:26.178Z,2.38
2022-10-06T17:01:53.552Z,2.45
2022-10-06T17:04:23.219Z,2.72
2022-10-06T17:06:52.933Z,2.35
2022-10-06T17:09:25.355Z,2.70
2022-10-06T17:11:58.545Z,2.42
2022-10-06T17:14:26.572Z,3.30
2022-10-06T17:16:56.328Z,2.55
2022-10-06T17:19:26.713Z,4.13
2022-10-06T17:21:58.559Z,3.25
2022-10-06T17:24:28.190Z,3.50
2022-10-06T17:26:56.681Z,3.00
2022-10-06T17:29:24.289Z,3.17
2022-10-06T17:32:01.742Z,3.25
2022-10-06T17:34:33.527Z,3.45
2022-10-06T17:37:01.937Z,3.72
2022-10-06T17:39:29.243Z,3.47
2022-10-06T17:41:57.061Z,2.85
2022-10-06T17:44:27.032Z,3.20
2022-10-06T17:46:58.958Z,3.53
2022-10-06T17:49:26.736Z,3.05
2022-10-06T17:51:55.112Z,2.20
2022-10-06T17:54:24.302Z,2.83
2022-10-06T17:56:54.916Z,3.15
2022-10-06T17:59:24.716Z,2.88
2022-10-06T18:01:54.219Z,3.65
2022-10-06T18:04:21.597Z,4.35
2022-10-06T18:06:49.044Z,6.18
2022-10-06T18:09:16.725Z,5.55
2022-10-06T18:11:55.625Z,4.75
2022-10-06T18:14:25.232Z,4.38
2022-10-06T18:16:56.774Z,4.53
2022-10-06T18:19:30.107Z,4.15
2022-10-06T18:22:02.648Z,3.17
2022-10-06T18:24:31.492Z,3.20
2022-10-06T18:27:00.854Z,3.33
2022-10-06T18:33:37.278Z,3.67
2022-10-06T18:37:35.239Z,5.00
2022-10-06T18:40:06.287Z,4.32
2022-10-06T18:42:33.767Z,4.20
2022-10-06T18:45:19.876Z,4.15
2022-10-06T18:48:05.703Z,4.53
2022-10-06T18:50:33.450Z,5.10
2022-10-06T18:53:01.583Z,5.22
2022-10-06T18:55:29.806Z,5.35
2022-10-06T18:57:57.242Z,4.78
2022-10-06T19:00:25.928Z,5.20
2022-10-06T19:02:55.613Z,6.50
2022-10-06T19:05:23.468Z,6.68
2022-10-06T19:07:53.321Z,6.65
2022-10-06T19:10:20.610Z,7.05
2022-10-06T19:12:48.567Z,7.20
2022-10-06T19:15:20.305Z,6.57
2022-10-06T19:17:48.763Z,7.15
2022-10-06T19:20:16.180Z,7.65
2022-10-06T19:22:43.571Z,6.78
2022-10-06T19:25:11.428Z,6.50
2022-10-06T19:27:38.688Z,7.32
2022-10-06T19:30:06.322Z,8.02
2022-10-06T19:32:34.960Z,9.18
2022-10-06T19:35:05.182Z,9.20
2022-10-06T19:37:35.055Z,9.20
2022-10-06T19:40:02.262Z,10.32
2022-10-06T19:42:47.617Z,20.38
2022-10-06T19:45:16.030Z,20.27
2022-10-06T19:47:47.755Z,15.65
2022-10-06T19:50:17.091Z,15.00
2022-10-06T19:55:12.544Z,10.80
2022-10-06T19:57:39.962Z,12.55
2022-10-06T20:00:07.933Z,11.63
2022-10-06T20:02:38.602Z,11.15
2022-10-06T20:05:10.297Z,19.25
2022-10-06T20:07:37.556Z,13.95
2022-10-06T20:10:04.916Z,18.02
2022-10-06T20:12:33.683Z,16.63
2022-10-06T20:15:00.875Z,18.75
2022-10-06T20:17:28.922Z,14.05
2022-10-06T20:19:59.258Z,11.38
2022-10-06T20:22:26.667Z,9.68
2022-10-06T20:24:53.977Z,10.35
2022-10-06T20:27:21.185Z,7.32
2022-10-06T20:29:48.637Z,7.70
2022-10-06T20:32:15.882Z,8.02
2022-10-06T20:34:43.194Z,8.30
2022-10-06T20:37:10.384Z,14.90
2022-10-06T20:39:56.041Z,12.13
2022-10-06T20:42:24.060Z,10.85
2022-10-06T20:44:54.037Z,12.57
2022-10-06T20:47:21.301Z,22.08
2022-10-06T20:49:54.875Z,29.70
2022-10-06T20:52:23.729Z,15.75
2022-10-06T20:54:51.193Z,13.45
2022-10-06T20:57:18.436Z,12.25
2022-10-06T20:59:46.067Z,12.15
2022-10-06T21:02:13.564Z,13.65
2022-10-06T21:04:43.682Z,15.57
2022-10-06T21:07:11.397Z,18.70
2022-10-06T21:09:38.720Z,18.00
2022-10-06T21:12:06.138Z,24.13
2022-10-06T21:14:34.294Z,15.20
2022-10-06T21:17:02.059Z,17.00
2022-10-06T21:19:30.205Z,35.03
2022-10-06T21:21:57.612Z,18.10
2022-10-06T21:24:25.166Z,10.63
2022-10-06T21:26:52.896Z,8.48
2022-10-06T21:29:20.718Z,10.65
2022-10-06T21:31:48.125Z,11.00
2022-10-06T21:34:15.717Z,9.40
2022-10-06T21:36:44.252Z,10.18
2022-10-06T21:39:12.124Z,14.13
2022-10-06T21:41:40.127Z,11.32
2022-10-06T21:44:09.806Z,12.05
2022-10-06T21:46:48.656Z,14.60
2022-10-06T21:49:17.913Z,11.75
2022-10-06T21:51:46.679Z,12.65
2022-10-06T21:54:14.612Z,13.07
2022-10-06T21:56:42.178Z,13.48
2022-10-06T21:59:10.346Z,12.95
2022-10-06T22:01:40.801Z,11.32
2022-10-06T22:04:08.346Z,12.80
2022-10-06T22:06:37.067Z,13.35
2022-10-06T22:09:07.424Z,12.60
2022-10-06T22:11:40.219Z,13.00
2022-10-06T22:14:10.313Z,9.52
2022-10-06T22:16:38.392Z,10.57
2022-10-06T22:19:07.618Z,10.18
2022-10-06T22:21:40.030Z,9.80
2022-10-06T22:24:13.340Z,12.82
2022-10-06T22:26:41.782Z,11.02
2022-10-06T22:29:14.691Z,10.53
2022-10-06T22:31:44.065Z,10.95
2022-10-06T22:36:39.654Z,11.05
2022-10-06T22:39:07.141Z,9.63
2022-10-06T22:41:34.538Z,11.85
2022-10-06T22:44:02.073Z,9.38
2022-10-06T22:46:31.915Z,7.20
2022-10-06T22:48:59.483Z,10.75
2022-10-06T22:51:26.928Z,11.32
2022-10-06T22:53:58.338Z,9.57
2022-10-06T22:56:30.399Z,8.10
2022-10-06T22:59:00.655Z,7.85
2022-10-06T23:01:29.162Z,7.45
2022-10-06T23:03:56.732Z,7.73
2022-10-06T23:06:24.771Z,7.75
2022-10-06T23:08:52.339Z,7.53
2022-10-06T23:11:21.407Z,7.72
2022-10-06T23:13:50.489Z,8.32
2022-10-06T23:16:19.370Z,8.77
2022-10-06T23:18:47.494Z,9.25
2022-10-06T23:21:22.020Z,7.75
2022-10-06T23:23:54.324Z,9.25
2022-10-06T23:26:22.830Z,8.50
2022-10-06T23:28:55.560Z,7.77
2022-10-06T23:31:23.473Z,6.45
2022-10-06T23:33:50.988Z,6.80
2022-10-06T23:36:18.904Z,6.03
2022-10-06T23:38:46.906Z,6.05
2022-10-06T23:41:14.754Z,6.40
2022-10-06T23:43:42.368Z,6.00
2022-10-06T23:46:10.001Z,6.13
2022-10-06T23:48:37.636Z,5.60
2022-10-06T23:51:07.704Z,6.38
2022-10-06T23:53:35.978Z,5.72
2022-10-06T23:56:06.144Z,6.18
2022-10-06T23:58:33.491Z,5.68
